createdAt,value
2023-02-22T00:01:21.776Z,101694.84
2023-02-22T00:06:20.915Z,101686.69
2023-02-22T00:11:18.777Z,101684.53
2023-02-22T00:16:20.400Z,101681.81
2023-02-22T00:21:18.394Z,101678.28
2023-02-22T00:26:19.577Z,101683.19
2023-02-22T00:31:16.627Z,101676.94
2023-02-22T00:36:14.203Z,101668.22
2023-02-22T00:41:12.252Z,101668.50
2023-02-22T00:46:08.723Z,101667.97
2023-02-22T00:51:05.354Z,101668.22
2023-02-22T00:56:01.782Z,101674.47
2023-02-22T01:00:58.290Z,101673.09
2023-02-22T01:05:54.682Z,101677.19
2023-02-22T01:10:52.517Z,101666.59
2023-02-22T01:15:48.958Z,101660.31
2023-02-22T01:20:47.865Z,101665.50
2023-02-22T01:25:44.560Z,101660.06
2023-02-22T01:30:41.204Z,101663.31
2023-02-22T01:35:41.819Z,101658.97
2023-02-22T01:40:41.925Z,101655.19
2023-02-22T01:45:43.971Z,101646.47
2023-02-22T01:50:44.220Z,101639.94
2023-02-22T01:55:41.753Z,101642.13
2023-02-22T02:00:39.913Z,101633.94
2023-02-22T02:05:37.152Z,101638.03
2023-02-22T02:10:34.907Z,101635.00
2023-02-22T02:15:33.872Z,101634.75
2023-02-22T02:20:39.027Z,101633.38
2023-02-22T02:26:12.743Z,101629.31
2023-02-22T02:31:46.487Z,101632.03
2023-02-22T02:37:27.860Z,101629.59
2023-02-22T02:42:33.615Z,101623.06
2023-02-22T02:47:34.700Z,101621.44
2023-02-22T02:52:34.166Z,101606.47
2023-02-22T02:57:30.596Z,101607.00
2023-02-22T03:02:53.453Z,101598.59
2023-02-22T03:07:58.856Z,101598.56
2023-02-22T03:13:01.063Z,101595.88
2023-02-22T03:18:06.677Z,101592.63
2023-02-22T03:23:28.750Z,101583.34
2023-02-22T03:28:28.702Z,101580.66
2023-02-22T03:33:33.649Z,101573.84
2023-02-22T03:38:33.618Z,101568.41
2023-02-22T03:43:37.525Z,101576.81
2023-02-22T03:48:45.097Z,101577.09
2023-02-22T03:53:44.515Z,101579.00
2023-02-22T03:58:47.836Z,101575.72
2023-02-22T04:03:44.323Z,101577.38
2023-02-22T04:08:40.787Z,101575.19
2023-02-22T04:13:37.169Z,101570.28
2023-02-22T04:18:33.596Z,101578.44
2023-02-22T04:23:29.979Z,101581.69
2023-02-22T04:28:26.364Z,101581.72
2023-02-22T04:33:22.764Z,101580.09
2023-02-22T04:38:19.276Z,101580.09
2023-02-22T04:43:15.738Z,101576.84
2023-02-22T04:48:12.165Z,101576.00
2023-02-22T04:53:09.073Z,101575.16
2023-02-22T04:58:05.509Z,101571.88
2023-02-22T05:03:02.005Z,101564.81
2023-02-22T05:07:58.590Z,101559.63
2023-02-22T05:12:55.049Z,101564.31
2023-02-22T05:17:52.393Z,101561.59
2023-02-22T05:22:49.070Z,101564.00
2023-02-22T05:27:45.621Z,101563.19
2023-02-22T05:32:42.396Z,101564.56
2023-02-22T05:37:39.582Z,101569.16
2023-02-22T05:42:36.019Z,101567.84
2023-02-22T05:47:32.411Z,101570.25
2023-02-22T05:52:28.816Z,101564.00
2023-02-22T05:57:25.240Z,101557.75
2023-02-22T06:02:21.656Z,101556.66
2023-02-22T06:07:18.148Z,101549.84
2023-02-22T06:12:14.604Z,101554.78
2023-02-22T06:17:11.563Z,101561.28
2023-02-22T06:22:08.630Z,101561.84
2023-02-22T06:27:05.005Z,101558.25
2023-02-22T06:32:01.432Z,101570.25
2023-02-22T06:36:59.940Z,101569.16
2023-02-22T06:41:57.755Z,101570.53
2023-02-22T06:46:54.256Z,101570.25
2023-02-22T06:51:50.733Z,101565.91
2023-02-22T06:56:47.232Z,101566.44
2023-02-22T07:01:44.062Z,101566.97
2023-02-22T07:06:45.910Z,101569.69
2023-02-22T07:11:42.572Z,101575.66
2023-02-22T07:16:39.139Z,101569.16
2023-02-22T07:21:35.585Z,101566.97
2023-02-22T07:26:39.428Z,101571.28
2023-02-22T07:31:38.585Z,101566.41
2023-02-22T07:36:34.986Z,101567.50
2023-02-22T07:41:31.414Z,101558.28
2023-02-22T07:46:27.831Z,101565.31
2023-02-22T07:51:24.372Z,101558.78
2023-02-22T07:56:20.817Z,101553.34
2023-02-22T08:01:17.545Z,101550.56
2023-02-22T08:06:14.170Z,101550.56
2023-02-22T08:11:10.631Z,101542.63
2023-02-22T08:16:07.093Z,101535.50
2023-02-22T08:21:03.927Z,101539.59
2023-02-22T08:26:08.610Z,101529.75
2023-02-22T08:31:07.559Z,101529.78
2023-02-22T08:36:04.333Z,101532.94
2023-02-22T08:41:00.797Z,101528.56
2023-02-22T08:45:57.927Z,101518.66
2023-02-22T08:50:54.804Z,101527.38
2023-02-22T08:55:51.217Z,101525.00
2023-02-22T09:00:47.790Z,101525.16
2023-02-22T09:05:44.684Z,101524.09
2023-02-22T09:10:41.214Z,101509.13
2023-02-22T09:15:39.563Z,101506.81
2023-02-22T09:20:36.280Z,101517.72
2023-02-22T09:25:34.201Z,101514.53
2023-02-22T09:30:33.655Z,101520.25
2023-02-22T09:35:30.098Z,101518.13
2023-02-22T09:40:32.383Z,101509.41
2023-02-22T09:45:36.733Z,101503.94
2023-02-22T09:50:37.809Z,101501.25
2023-02-22T09:55:51.173Z,101510.25
2023-02-22T10:00:51.637Z,101512.34
2023-02-22T10:06:09.863Z,101504.19
2023-02-22T10:11:19.159Z,101505.94
2023-02-22T10:16:48.168Z,101495.75
2023-02-22T10:21:53.454Z,101486.47
2023-02-22T10:26:50.910Z,101480.22
2023-02-22T10:31:54.860Z,101475.81
2023-02-22T10:36:59.122Z,101481.53
2023-02-22T10:42:07.940Z,101468.53
2023-02-22T10:47:08.543Z,101459.53
2023-02-22T10:52:29.265Z,101445.06
2023-02-22T10:57:32.934Z,101419.91
2023-02-22T11:02:35.161Z,101399.69
2023-02-22T11:07:34.910Z,101378.88
2023-02-22T11:12:33.901Z,101388.34
2023-02-22T11:17:33.899Z,101372.72
2023-02-22T11:22:42.080Z,101370.66
2023-02-22T11:27:43.917Z,101349.72
2023-02-22T11:32:47.589Z,101341.38
2023-02-22T11:37:44.089Z,101327.75
2023-02-22T11:42:40.594Z,101319.22
2023-02-22T11:48:00.463Z,101312.59
2023-02-22T11:53:25.193Z,101306.81
2023-02-22T11:58:24.565Z,101295.53
2023-02-22T12:03:20.916Z,101287.13
2023-02-22T12:08:45.701Z,101289.88
2023-02-22T12:13:56.204Z,101282.25
2023-02-22T12:19:26.559Z,101287.06
2023-02-22T12:24:28.882Z,101275.00
2023-02-22T12:29:33.808Z,101280.69
2023-02-22T12:34:41.244Z,101276.34
2023-02-22T12:39:54.067Z,101259.59
2023-02-22T12:45:08.313Z,101260.00
2023-02-22T12:50:28.868Z,101260.16
2023-02-22T12:55:32.430Z,101262.59
2023-02-22T13:00:46.332Z,101258.28
2023-02-22T13:05:49.348Z,101262.03
2023-02-22T13:10:57.688Z,101256.66
2023-02-22T13:16:31.773Z,101249.06
2023-02-22T13:21:46.268Z,101251.78
2023-02-22T13:26:51.501Z,101242.97
2023-02-22T13:32:27.384Z,101250.00
2023-02-22T13:37:35.791Z,101234.00
2023-02-22T13:43:03.784Z,101226.19
2023-02-22T13:48:44.759Z,101229.09
2023-02-22T13:53:43.676Z,101226.31
2023-02-22T13:59:23.883Z,101220.06
2023-02-22T14:04:37.128Z,101225.56
2023-02-22T14:09:55.870Z,101227.78
2023-02-22T14:15:28.580Z,101230.72
2023-02-22T14:20:32.512Z,101223.44
2023-02-22T14:25:40.346Z,101226.00
2023-02-22T14:30:38.735Z,101224.75
2023-02-22T14:35:49.484Z,101225.88
2023-02-22T14:40:49.346Z,101223.88
2023-02-22T14:45:51.845Z,101226.59
2023-02-22T14:50:53.012Z,101216.91
2023-02-22T14:56:03.853Z,101217.25
2023-02-22T15:01:19.994Z,101220.78
2023-02-22T15:06:20.189Z,101218.97
2023-02-22T15:11:22.812Z,101213.31
2023-02-22T15:16:20.624Z,101216.75
2023-02-22T15:21:21.794Z,101216.75
2023-02-22T15:26:31.237Z,101216.16
2023-02-22T15:31:31.948Z,101213.72
2023-02-22T15:36:32.419Z,101214.50
2023-02-22T15:41:32.747Z,101214.72
2023-02-22T15:46:29.799Z,101205.38
2023-02-22T15:51:29.208Z,101196.69
2023-02-22T15:56:29.937Z,101203.38
2023-02-22T16:01:27.037Z,101197.41
2023-02-22T16:06:40.013Z,101203.53
2023-02-22T16:11:39.799Z,101204.16
2023-02-22T16:16:41.485Z,101205.34
2023-02-22T16:21:53.449Z,101212.44
2023-02-22T16:27:06.977Z,101215.75
2023-02-22T16:32:03.847Z,101215.22
2023-02-22T16:37:01.199Z,101217.22
2023-02-22T16:42:00.105Z,101223.91
2023-02-22T16:46:58.935Z,101228.84
2023-02-22T16:52:07.093Z,101220.78
2023-02-22T16:57:05.097Z,101228.47
2023-02-22T17:02:01.622Z,101228.03
2023-02-22T17:06:58.980Z,101239.72
2023-02-22T17:11:55.821Z,101238.50
2023-02-22T17:16:52.230Z,101234.25
2023-02-22T17:21:49.707Z,101246.09
2023-02-22T17:26:46.440Z,101239.25
2023-02-22T17:31:42.933Z,101232.53
2023-02-22T17:36:39.377Z,101230.09
2023-02-22T17:41:37.327Z,101244.34
2023-02-22T17:46:37.480Z,101241.16
2023-02-22T17:51:34.119Z,101246.63
2023-02-22T17:56:30.541Z,101254.28
2023-02-22T18:01:30.003Z,101256.28
2023-02-22T18:06:28.531Z,101259.28
2023-02-22T18:11:26.788Z,101262.19
2023-02-22T18:16:25.687Z,101264.28
2023-02-22T18:21:23.263Z,101260.44
2023-02-22T18:26:21.231Z,101266.56
2023-02-22T18:31:23.811Z,101260.06
2023-02-22T18:36:22.544Z,101250.28
2023-02-22T18:41:20.691Z,101253.06
2023-02-22T18:46:20.269Z,101250.44
2023-02-22T18:51:17.479Z,101253.63
2023-02-22T18:56:21.326Z,101254.75
2023-02-22T19:01:18.832Z,101250.38
2023-02-22T19:06:18.092Z,101253.69
2023-02-22T19:11:19.268Z,101251.84
2023-02-22T19:16:20.047Z,101254.66
2023-02-22T19:21:16.905Z,101244.56
2023-02-22T19:26:19.217Z,101250.00
2023-02-22T19:31:30.529Z,101250.34
2023-02-22T19:36:27.008Z,101247.34
2023-02-22T19:41:24.040Z,101243.56
2023-02-22T19:46:21.251Z,101242.94
2023-02-22T19:51:19.552Z,101239.34
2023-02-22T19:56:18.770Z,101235.38
2023-02-22T20:01:23.350Z,101230.78
2023-02-22T20:06:21.311Z,101233.75
2023-02-22T20:11:18.295Z,101236.75
2023-02-22T20:16:17.614Z,101234.56
2023-02-22T20:21:25.740Z,101235.16
2023-02-22T20:26:24.030Z,101229.16
2023-02-22T20:31:21.815Z,101230.63
2023-02-22T20:36:22.035Z,101229.88
2023-02-22T20:41:32.857Z,101229.31
2023-02-22T20:46:35.491Z,101225.56
2023-02-22T20:51:31.773Z,101220.50
2023-02-22T20:56:30.080Z,101219.63
2023-02-22T21:01:27.026Z,101219.44
2023-02-22T21:06:24.009Z,101220.22
2023-02-22T21:11:22.850Z,101216.66
2023-02-22T21:16:25.634Z,101221.28
2023-02-22T21:21:22.460Z,101217.00
2023-02-22T21:26:25.202Z,101210.75
2023-02-22T21:31:24.265Z,101218.09
2023-02-22T21:36:25.157Z,101212.66
2023-02-22T21:41:24.825Z,101211.00
2023-02-22T21:46:22.527Z,101211.31
2023-02-22T21:51:22.205Z,101215.69
2023-02-22T21:56:24.334Z,101203.53
2023-02-22T22:01:21.070Z,101205.13
2023-02-22T22:06:17.633Z,101208.63
2023-02-22T22:11:17.689Z,101202.38
2023-02-22T22:16:16.626Z,101204.00
2023-02-22T22:21:20.599Z,101201.78
2023-02-22T22:26:19.866Z,101196.69
2023-02-22T22:31:19.645Z,101206.25
2023-02-22T22:36:18.210Z,101198.09
2023-02-22T22:41:17.564Z,101202.47
2023-02-22T22:46:16.773Z,101207.38
2023-02-22T22:51:15.802Z,101197.91
2023-02-22T22:56:16.267Z,101201.50
2023-02-22T23:01:19.968Z,101190.09
2023-02-22T23:06:16.556Z,101197.75
2023-02-22T23:11:13.003Z,101194.53
2023-02-22T23:16:11.925Z,101197.81
2023-02-22T23:21:09.026Z,101197.31
2023-02-22T23:26:18.631Z,101197.88
2023-02-22T23:31:16.969Z,101204.44
2023-02-22T23:36:15.133Z,101205.53
2023-02-22T23:41:16.365Z,101203.94
2023-02-22T23:46:18.459Z,101211.03
2023-02-22T23:51:19.708Z,101206.72
2023-02-22T23:56:20.846Z,101204.81
